Flight Track Log - Related Links

Times and Time Zones

All times are in EDT time to prevent confusion due to time zone crossing. See the SWA757 flight status page for this flight to view local times or setup timezone preferences in your user account.

Time Position Orientation Groundspeed Altitude Reporting Facility
EDT Latitude Longitude Course Direction KTS MPH feet Rate Location/Type
Tue 03:33:55 PM 39.7333 -86.2833 285° West 154 177 1,400  Level Indianapolis TRACON
Tue 03:35:19 PM 39.7500 -86.3667 285° West 225 259 5,500 2,744 Climbing Indianapolis TRACON
Tue 03:36:39 PM 39.6925 -86.4300 220° Southwest 235 270 8,900 2,282 Climbing Indianapolis Center
Tue 03:37:41 PM 39.6142 -86.4094 169° South 286 329 10,900 2,371 Climbing Indianapolis Center
Tue 03:38:43 PM 39.5036 -86.3689 164° South 341 392 13,800 2,516 Climbing Indianapolis Center
Tue 03:39:45 PM 39.4089 -86.3264 161° South 358 412 16,100 2,177 Climbing Indianapolis Center
Tue 03:40:47 PM 39.3122 -86.2689 155° Southeast 378 435 18,300 1,790 Climbing Indianapolis Center
Tue 03:41:49 PM 39.2097 -86.2094 156° South 397 457 19,800 1,597 Climbing Indianapolis Center
Tue 03:42:51 PM 39.1019 -86.1472 156° South 417 480 21,600 1,512 Climbing Indianapolis Center
Tue 03:43:52 PM 38.9878 -86.0811 156° South 440 506 22,900 1,512 Climbing Indianapolis Center
Tue 03:44:54 PM 38.8525 -86.0031 156° South 461 531 24,700 1,790 Climbing Indianapolis Center
Tue 03:45:56 PM 38.7294 -85.9336 156° South 471 542 26,600 1,500 Climbing Indianapolis Center
Tue 03:46:58 PM 38.6072 -85.8628 156° South 474 545 27,800 1,355 Climbing Indianapolis Center
Tue 03:48:00 PM 38.4758 -85.8097 162° South 484 557 29,400 1,452 Climbing Indianapolis Center
Tue 03:49:02 PM 38.3425 -85.7697 167° South 482 555 30,800 1,500 Climbing Indianapolis Center
Tue 03:50:04 PM 38.2122 -85.7306 167° South 482 555 32,500 1,403 Climbing Indianapolis Center
Tue 03:51:06 PM 38.0575 -85.6842 167° South 480 552 33,700 1,210 Climbing Indianapolis Center
Tue 03:52:08 PM 37.9289 -85.6464 167° South 475 547 35,000 629 Climbing Indianapolis Center
Tue 03:53:10 PM 37.8033 -85.6092 167° South 465 535 35,000  Level Indianapolis Center
Tue 03:54:12 PM 37.6769 -85.5711 167° South 465 535 35,000  Level Indianapolis Center
Tue 03:55:14 PM 37.5489 -85.5319 166° South 465 535 35,000  Level Indianapolis Center
Tue 03:56:16 PM 37.4147 -85.4931 167° South 466 536 35,000  Level Indianapolis Center
Tue 03:57:18 PM 37.2861 -85.4569 167° South 469 540 35,000  Level Indianapolis Center
Tue 03:58:20 PM 37.1581 -85.4189 167° South 470 541 35,000  Level Indianapolis Center
Tue 03:59:22 PM 37.0222 -85.3792 167° South 471 542 35,000  Level Indianapolis Center
Tue 04:00:24 PM 36.8922 -85.3408 167° South 476 548 35,000  Level Indianapolis Center
Tue 04:01:26 PM 36.7619 -85.3039 167° South 477 549 35,000  Level Indianapolis Center
Tue 04:02:28 PM 36.6053 -85.2586 167° South 477 549 35,000  Level Indianapolis Center
Tue 04:03:29 PM 36.4744 -85.2208 167° South 479 551 35,000  Level Indianapolis Center
Tue 04:04:31 PM 36.3436 -85.1842 167° South 479 551 35,000  Level Indianapolis Center
Tue 04:05:34 PM 36.2128 -85.1467 167° South 480 552 35,000  Level Indianapolis Center
Tue 04:06:35 PM 36.0808 -85.1086 167° South 482 555 35,000  Level Indianapolis Center
Tue 04:07:37 PM 35.9450 -85.0703 167° South 483 556 35,000  Level Indianapolis Center
Tue 04:08:17 PM 35.8436 -85.0456 169° South 488 562 35,000  Level Atlanta Center
Tue 04:09:17 PM 35.7144 -85.0081 167° South 488 562 35,000  Level Atlanta Center
Tue 04:10:17 PM 35.5958 -84.9736 167° South 488 562 35,000  Level Atlanta Center
Tue 04:11:17 PM 35.4667 -84.9389 168° South 488 562 35,000  Level Atlanta Center
Tue 04:12:17 PM 35.3375 -84.9019 167° South 483 556 35,000  Level Atlanta Center
Tue 04:13:17 PM 35.2106 -84.8675 167° South 478 550 35,000  Level Atlanta Center
Tue 04:14:17 PM 35.0814 -84.8306 167° South 478 550 35,000  Level Atlanta Center
Tue 04:15:17 PM 34.9544 -84.7964 168° South 478 550 35,000  Level Atlanta Center
Tue 04:16:17 PM 34.8253 -84.7600 167° South 478 550 35,000  Level Atlanta Center
Tue 04:17:17 PM 34.6939 -84.7258 168° South 478 550 35,000  Level Atlanta Center
Tue 04:18:17 PM 34.5522 -84.6844 166° South 473 544 35,000  Level Atlanta Center
Tue 04:19:17 PM 34.4253 -84.6483 167° South 473 544 35,000  Level Atlanta Center
Tue 04:20:17 PM 34.2917 -84.6119 167° South 478 550 35,000  Level Atlanta Center
Tue 04:21:17 PM 34.1625 -84.5786 168° South 484 557 35,000  Level Atlanta Center
Tue 04:22:17 PM 34.0269 -84.5450 168° South 489 563 35,000 -650 Level Atlanta Center
Tue 04:23:17 PM 33.8956 -84.5092 167° South 489 563 33,700 -1,950 Descending Atlanta Center
Tue 04:24:17 PM 33.7664 -84.4736 167° South 489 563 31,100 -1,400 Descending Atlanta Center
Tue 04:25:17 PM 33.6369 -84.4406 168° South 484 557 30,900 -600 Descending Atlanta Center
Tue 04:26:17 PM 33.5139 -84.4350 178° South 472 543 29,900 -900 Descending Atlanta Center
Tue 04:27:17 PM 33.3908 -84.4344 180° South 453 521 29,100 -450 Descending Atlanta Center
Tue 04:28:17 PM 33.2633 -84.4314 179° South 458 527 29,000 -50 Descending Atlanta Center
Tue 04:29:17 PM 33.1383 -84.4308 180° South 458 527 29,000  Level Atlanta Center
Tue 04:30:17 PM 33.0256 -84.4278 179° South 458 527 29,000  Level Atlanta Center
Tue 04:31:17 PM 32.9025 -84.4222 178° South 448 516 29,000  Level Atlanta Center
Tue 04:32:17 PM 32.7792 -84.4169 178° South 448 516 29,000 -450 Level Atlanta Center
Tue 04:33:17 PM 32.6539 -84.4164 180° South 448 516 28,100 -900 Descending Atlanta Center
Tue 04:34:17 PM 32.5267 -84.4158 180° South 455 524 27,200 -371 Descending Atlanta Center
Tue 04:36:15 PM 32.2722 -84.4086 179° South 484 557 27,000 -67 Descending Jacksonville Center
Tue 04:37:15 PM 32.1450 -84.4064 179° South 472 543 27,000  Level Jacksonville Center
Tue 04:38:15 PM 32.0175 -84.4044 179° South 462 532 27,000  Level Jacksonville Center
Tue 04:39:15 PM 31.8944 -84.4022 179° South 457 526 27,000  Level Jacksonville Center
Tue 04:40:15 PM 31.7692 -84.3978 178° South 452 520 27,000  Level Jacksonville Center
Tue 04:41:15 PM 31.6439 -84.3958 179° South 452 520 27,000  Level Jacksonville Center
Tue 04:42:15 PM 31.5189 -84.3939 179° South 452 520 27,000  Level Jacksonville Center
Tue 04:43:15 PM 31.3917 -84.3675 170° South 458 527 27,000  Level Jacksonville Center
Tue 04:44:15 PM 31.2628 -84.3242 164° South 470 541 27,000  Level Jacksonville Center
Tue 04:45:15 PM 31.1336 -84.2858 166° South 475 547 27,000  Level Jacksonville Center
Tue 04:46:15 PM 31.0067 -84.2475 165° South 475 547 27,000  Level Jacksonville Center
Tue 04:47:15 PM 30.8797 -84.2119 166° South 469 540 27,000  Level Jacksonville Center
Tue 04:48:15 PM 30.7528 -84.1714 165° South 469 540 27,000  Level Jacksonville Center
Tue 04:49:15 PM 30.6258 -84.1333 166° South 469 540 27,000  Level Jacksonville Center
Tue 04:50:15 PM 30.4883 -84.0931 166° South 463 533 27,000  Level Jacksonville Center
Tue 04:51:15 PM 30.3594 -84.0553 166° South 476 548 27,000  Level Jacksonville Center
Tue 04:52:15 PM 30.2322 -84.0178 166° South 476 548 27,000  Level Jacksonville Center
Tue 04:53:15 PM 30.1053 -83.9803 166° South 471 542 27,000  Level Jacksonville Center
Tue 04:54:15 PM 29.9783 -83.9453 167° South 471 542 27,000  Level Jacksonville Center
Tue 04:55:15 PM 29.8553 -83.9056 164° South 471 542 27,000  Level Jacksonville Center
Tue 04:56:15 PM 29.7347 -83.8444 156° South 471 542 27,000  Level Jacksonville Center
Tue 04:57:15 PM 29.6206 -83.7694 150° Southeast 471 542 27,000  Level Jacksonville Center
Tue 04:58:15 PM 29.5061 -83.6967 151° Southeast 471 542 27,000  Level Jacksonville Center
Tue 04:59:15 PM 29.4022 -83.6292 150° Southeast 476 548 27,000 -167 Level Jacksonville Center
Tue 05:01:15 PM 29.1775 -83.4847 151° Southeast 471 542 26,500 -467 Descending Jacksonville Center
Tue 05:02:15 PM 29.0650 -83.4128 151° Southeast 466 536 25,600 -1,100 Descending Jacksonville Center
Tue 05:03:15 PM 28.9567 -83.3411 150° Southeast 456 525 24,300 -1,700 Descending Jacksonville Center
Tue 05:04:15 PM 28.8506 -83.2742 151° Southeast 451 519 22,200 -2,203 Descending Jacksonville Center
Tue 05:05:53 PM 28.6833 -83.1667 151° Southeast 411 473 18,500 -2,165 Descending Tampa TRACON
Tue 05:06:53 PM 28.5833 -83.1000 150° Southeast 398 458 16,500 -2,050 Descending Tampa TRACON
Tue 05:07:53 PM 28.4833 -83.0500 156° South 386 444 14,400 -2,000 Descending Tampa TRACON
Tue 05:08:53 PM 28.3833 -82.9833 150° Southeast 376 433 12,500 -1,950 Descending Tampa TRACON
Tue 05:09:53 PM 28.3000 -82.9333 152° Southeast 365 420 10,500 -1,409 Descending Tampa TRACON
Tue 05:10:48 PM 28.2333 -82.8833 147° Southeast 320 368 9,800 -1,148 Descending Tampa TRACON
Tue 05:11:48 PM 28.1667 -82.8167 139° Southeast 314 361 8,300 -1,400 Descending Tampa TRACON
Tue 05:12:48 PM 28.1000 -82.7333 132° Southeast 329 379 7,000 -1,350 Descending Tampa TRACON
Tue 05:13:48 PM 28.0500 -82.6667 130° Southeast 311 358 5,600 -1,000 Descending Tampa TRACON
Tue 05:14:48 PM 27.9833 -82.6167 146° Southeast 274 315 5,000 -350 Descending Tampa TRACON
Tue 05:15:48 PM 27.9167 -82.6167 180° South 235 270 4,900 -476 Descending Tampa TRACON
Tue 05:16:54 PM 27.8333 -82.6167 180° South 238 274 4,000 -762 Descending Tampa TRACON
Tue 05:17:54 PM 27.7667 -82.6167 180° South 250 288 3,300 -700 Descending Tampa TRACON
Tue 05:18:54 PM 27.7667 -82.5500 90° East 243 280 2,600 -350 Descending Tampa TRACON
Tue 05:19:54 PM 27.8167 -82.5500 360° North 185 213 2,600 -300 Level Tampa TRACON
Tue 05:20:54 PM 27.8667 -82.5500 360° North 160 184 2,000 -737 Descending Tampa TRACON
Tue 05:21:48 PM 27.9000 -82.5500 360° North 162 186 1,200 -833 Descending Tampa TRACON
Tue 05:22:42 PM 27.9333 -82.5500 360° North 137 158 500 -778 Descending Tampa TRACON

Login

Don't have an account? Register now (free) for customized features, flight alerts, and more!